Terminal Aerodrome Forecast
Issued by NWS Wilmington, NC

Home | Current Version | Previous Version | Text Only | Print | Product List | Glossary On
Versions: 1 2 3 4 5 6 7 8 9 10 11 12
896
FTUS42 KILM 110520
TAFMYR
TAF
KMYR 110520Z 1106/1206 30006KT P6SM SKC
     FM111700 26010KT P6SM SKC
     FM112300 26002KT P6SM SKC
      AMD LTD TO CLD VIS AND WIND TIL 111100=

USA.gov is the U.S. government's official web portal to all federal, state and local government web resources and services.